Time;durP1;ratioP1;P1;durP2;ratioP2;P2;SDS_P1;SDS_P2;PMS_P1;PMS_P2;Temp;Humidity;BMP_temperature;BMP_pressure;BME280_temperature;BME280_humidity;BME280_pressure;Samples;Min_cycle;Max_cycle;Signal;HPM_P1;HPM_P2
2024/04/18 00:01:21;;;;;;;;;0.00;0.00;;;;;20.42;40.47;99441.56;146634;569;46020;-73
2024/04/18 00:04:27;;;;;;;;;2.33;1.67;;;;;20.37;40.35;99447.75;146620;595;46012;-72
2024/04/18 00:07:36;;;;;;;;;0.00;0.00;;;;;20.28;40.81;99449.59;146622;633;46011;-73
2024/04/18 00:10:37;;;;;;;;;3.00;3.00;;;;;20.23;40.77;99445.25;146621;575;46012;-72
2024/04/18 00:13:33;;;;;;;;;1.00;1.00;;;;;20.23;40.49;99450.53;146621;600;47021;-73
2024/04/18 00:16:55;;;;;;;;;2.67;2.00;;;;;20.22;40.69;99451.44;146618;646;45586;-73
2024/04/18 00:19:51;;;;;;;;;2.00;1.00;;;;;20.23;41.00;99450.53;146622;571;47008;-72
2024/04/18 00:22:54;;;;;;;;;1.00;1.00;;;;;20.23;40.82;99445.25;146618;600;46016;-72
2024/04/18 00:25:49;;;;;;;;;2.00;2.00;;;;;20.21;41.14;99445.25;146621;602;46010;-73
2024/04/18 00:28:47;;;;;;;;;4.00;0.00;;;;;20.18;41.14;99450.53;146618;609;47013;-73
2024/04/18 00:31:54;;;;;;;;;3.00;1.00;;;;;20.17;40.57;99453.22;146618;583;47010;-73
2024/04/18 00:34:51;;;;;;;;;1.00;1.00;;;;;20.17;40.84;99453.22;146617;643;47012;-73
2024/04/18 00:37:59;;;;;;;;;;;;;;;;;;;;;
2024/04/18 00:41:03;;;;;;;;;2.33;1.00;;;;;20.11;41.60;99462.03;146619;632;47012;-73
2024/04/18 00:44:08;;;;;;;;;;;;;;;;;;;;;
2024/04/18 00:47:04;;;;;;;;;5.00;1.67;;;;;20.10;41.37;99462.91;146616;583;47012;-73
2024/04/18 00:50:15;;;;;;;;;1.00;0.67;;;;;20.10;40.82;99465.53;146620;610;46021;-72
2024/04/18 00:53:09;;;;;;;;;3.00;2.00;;;;;20.08;41.90;99464.66;146618;594;46016;-72
2024/04/18 00:56:24;;;;;;;;;1.33;1.00;;;;;20.03;41.51;99464.72;146621;564;46020;-73
2024/04/18 00:59:23;;;;;;;;;2.67;1.33;;;;;20.00;41.46;99471.72;146622;604;46012;-72
2024/04/18 01:02:19;;;;;;;;;0.00;0.00;;;;;19.93;41.17;99465.66;146621;562;47010;-71
2024/04/18 01:05:28;;;;;;;;;1.00;0.00;;;;;19.86;42.03;99461.31;146617;606;46016;-72
2024/04/18 01:08:54;;;;;;;;;1.00;1.00;;;;;19.81;41.83;99479.78;146623;563;46012;-72
2024/04/18 01:12:09;;;;;;;;;;;;;;;;;;;;;
2024/04/18 01:15:12;;;;;;;;;2.00;1.33;;;;;19.66;41.84;99471.97;146621;571;46020;-72
2024/04/18 01:18:35;;;;;;;;;0.00;0.00;;;;;19.57;41.70;99461.47;146619;572;46016;-74
2024/04/18 01:21:35;;;;;;;;;1.00;0.00;;;;;19.56;41.74;99470.22;146618;675;47021;-73
2024/04/18 01:24:31;;;;;;;;;1.67;0.00;;;;;19.47;42.91;99476.44;146618;570;47016;-75
2024/04/18 01:27:37;;;;;;;;;1.00;1.00;;;;;19.41;42.10;99476.47;146619;566;47010;-74
2024/04/18 01:30:38;;;;;;;;;3.00;1.67;;;;;19.35;43.19;99477.34;146617;626;46034;-77
2024/04/18 01:33:33;;;;;;;;;2.00;1.00;;;;;19.31;42.76;99485.25;146621;599;47010;-76
2024/04/18 01:36:32;;;;;;;;;1.00;0.00;;;;;19.29;43.25;99494.91;146618;626;46914;-77
2024/04/18 01:39:30;;;;;;;;;0.00;0.00;;;;;19.22;43.00;99496.69;146624;569;46020;-75
2024/04/18 01:42:35;;;;;;;;;1.33;1.33;;;;;19.19;42.60;99501.03;146618;619;46015;-74
2024/04/18 01:45:34;;;;;;;;;1.00;1.00;;;;;19.19;42.30;99509.84;146621;583;46021;-76
2024/04/18 01:48:45;;;;;;;;;0.00;0.00;;;;;19.18;42.10;99501.94;146620;592;46022;-75
2024/04/18 01:51:54;;;;;;;;;1.25;1.25;;;;;19.19;42.65;99512.47;146618;646;46021;-75
2024/04/18 01:54:59;;;;;;;;;0.00;0.00;;;;;19.15;42.91;99521.22;146618;640;46012;-73
2024/04/18 01:58:09;;;;;;;;;0.00;0.00;;;;;19.10;42.73;99523.88;146620;594;47049;-74
2024/04/18 02:01:13;;;;;;;;;0.67;0.67;;;;;19.06;43.16;99523.84;146616;574;46016;-74
2024/04/18 02:04:10;;;;;;;;;0.00;0.00;;;;;18.98;43.65;99533.53;146621;621;46027;-73
2024/04/18 02:07:34;;;;;;;;;0.00;0.00;;;;;18.53;43.14;99488.03;146618;579;47012;-83
2024/04/18 02:10:50;;;;;;;;;1.67;1.00;;;;;18.68;44.03;99554.50;146622;669;46020;-85
2024/04/18 02:13:47;;;;;;;;;0.00;0.00;;;;;18.56;44.32;99559.75;146620;670;46013;-84
2024/04/18 02:17:05;;;;;;;;;1.00;1.00;;;;;18.46;44.05;99560.66;146620;569;46020;-81
2024/04/18 02:20:13;;;;;;;;;3.67;0.67;;;;;18.40;43.79;99558.87;146622;581;46013;-77
2024/04/18 02:23:29;;;;;;;;;1.67;0.00;;;;;18.40;43.56;99547.50;146620;623;46020;-79
2024/04/18 02:26:35;;;;;;;;;1.00;1.00;;;;;18.48;43.92;99558.91;146615;589;46016;-80
2024/04/18 02:29:28;;;;;;;;;2.50;0.50;;;;;18.50;44.32;99566.78;146622;701;46020;-78
2024/04/18 02:32:26;;;;;;;;;2.00;1.00;;;;;18.44;43.89;99567.63;146620;632;46012;-79
2024/04/18 02:35:30;;;;;;;;;0.00;0.00;;;;;18.32;44.01;99570.28;146621;594;46021;-79
2024/04/18 02:38:31;;;;;;;;;0.25;0.25;;;;;18.24;44.80;99580.75;146617;617;46016;-79
2024/04/18 02:41:31;;;;;;;;;1.00;1.00;;;;;18.13;45.16;99577.19;146620;569;46010;-79
2024/04/18 02:44:46;;;;;;;;;0.00;0.00;;;;;18.03;44.63;99583.31;146615;581;47016;-78
2024/04/18 02:47:43;;;;;;;;;0.00;0.00;;;;;17.95;45.22;99591.16;146621;576;47010;-77
2024/04/18 02:50:48;;;;;;;;;0.00;0.00;;;;;17.88;45.52;99589.37;146616;584;46017;-75
2024/04/18 02:53:54;;;;;;;;;2.33;0.33;;;;;17.79;45.47;99590.25;146620;609;46020;-76
2024/04/18 02:56:57;;;;;;;;;0.00;0.00;;;;;17.69;45.15;99594.50;146616;599;46017;-77
2024/04/18 03:00:00;;;;;;;;;1.67;1.00;;;;;17.62;45.41;99595.34;146619;574;46010;-75
2024/04/18 03:03:19;;;;;;;;;2.00;0.00;;;;;17.61;44.41;99592.75;146620;630;46016;-75
2024/04/18 03:06:18;;;;;;;;;1.00;0.00;;;;;17.64;45.54;99588.38;146619;615;46020;-75
2024/04/18 03:09:13;;;;;;;;;0.00;0.00;;;;;17.72;45.11;99593.66;146615;589;46036;-73
2024/04/18 03:12:21;;;;;;;;;2.00;0.00;;;;;17.78;44.70;99589.34;146623;574;46011;-71
2024/04/18 03:15:26;;;;;;;;;2.33;0.00;;;;;17.86;44.24;99597.25;146614;569;46016;-71
2024/04/18 03:18:49;;;;;;;;;;;;;;;;;;;;;
2024/04/18 03:21:51;;;;;;;;;0.67;0.00;;;;;17.98;44.05;99599.91;146616;590;46012;-71
2024/04/18 03:24:49;;;;;;;;;0.00;0.00;;;;;18.04;43.97;99598.16;146620;596;47020;-71
2024/04/18 03:27:51;;;;;;;;;0.00;0.00;;;;;18.11;43.77;99599.97;146616;652;46016;-76
2024/04/18 03:30:56;;;;;;;;;0.00;0.00;;;;;18.16;44.29;99598.19;146614;620;47010;-78
2024/04/18 03:33:54;;;;;;;;;0.00;0.00;;;;;18.19;43.82;99601.72;146614;605;47017;-77
2024/04/18 03:37:11;;;;;;;;;1.00;0.00;;;;;17.78;43.44;99525.53;146624;637;46010;-76
2024/04/18 03:40:06;;;;;;;;;1.33;0.33;;;;;18.16;43.53;99599.09;146616;585;46014;-75
2024/04/18 03:43:22;;;;;;;;;2.33;0.00;;;;;18.13;43.98;99599.09;146621;573;46020;-76
2024/04/18 03:46:19;;;;;;;;;0.00;0.00;;;;;18.12;43.65;99604.31;146619;606;46012;-70
2024/04/18 03:49:15;;;;;;;;;1.67;0.33;;;;;18.11;44.22;99610.44;146618;587;48011;-70
2024/04/18 03:52:29;;;;;;;;;0.00;0.00;;;;;17.40;43.58;99489.56;146617;580;47014;-73
2024/04/18 03:55:26;;;;;;;;;1.33;0.00;;;;;18.16;44.71;99624.44;146619;587;46020;-73
2024/04/18 03:58:24;;;;;;;;;3.25;3.00;;;;;18.15;43.43;99615.69;146613;670;47014;-78
2024/04/18 04:01:25;;;;;;;;;5.00;4.50;;;;;18.10;44.10;99619.16;146611;577;46020;-77
2024/04/18 04:04:23;;;;;;;;;6.00;5.50;;;;;18.06;44.44;99633.16;146617;686;47013;-77
2024/04/18 04:07:37;;;;;;;;;7.00;6.00;;;;;18.00;45.09;99634.00;146621;637;46012;-75
2024/04/18 04:10:38;;;;;;;;;2.00;2.00;;;;;17.92;44.30;99633.13;146614;622;46916;-74
2024/04/18 04:13:35;;;;;;;;;3.33;2.33;;;;;17.87;45.34;99643.56;146617;593;46020;-75
2024/04/18 04:16:36;;;;;;;;;2.00;2.00;;;;;17.84;45.01;99645.31;146616;599;46016;-74
2024/04/18 04:19:41;;;;;;;;;4.33;2.00;;;;;17.77;45.88;99640.03;146619;565;47025;-75
2024/04/18 04:22:45;;;;;;;;;1.33;1.00;;;;;17.67;45.94;99653.06;146618;597;46012;-76
2024/04/18 04:25:43;;;;;;;;;5.33;3.33;;;;;17.53;46.49;99645.97;146621;588;47011;-76
2024/04/18 04:28:48;;;;;;;;;6.75;5.25;;;;;17.42;46.60;99655.53;146617;677;47012;-77
2024/04/18 04:31:53;;;;;;;;;6.00;5.25;;;;;17.30;46.50;99660.69;146613;704;46012;-78
2024/04/18 04:34:52;;;;;;;;;7.50;6.00;;;;;17.18;47.32;99655.38;146621;610;46013;-78
2024/04/18 04:38:10;;;;;;;;;5.25;4.75;;;;;17.15;47.95;99650.09;146617;690;46020;-78
2024/04/18 04:41:17;;;;;;;;;4.67;3.00;;;;;17.31;48.16;99665.94;146618;619;47016;-74
2024/04/18 04:44:38;;;;;;;;;6.50;4.50;;;;;16.91;46.42;99557.38;146620;636;46030;-77
2024/04/18 04:47:43;;;;;;;;;7.25;5.25;;;;;17.72;47.57;99670.56;146615;677;46016;-82
2024/04/18 04:50:47;;;;;;;;;5.00;3.00;;;;;17.92;46.80;99673.34;146621;686;46010;-81
2024/04/18 04:53:55;;;;;;;;;2.75;2.75;;;;;18.14;47.37;99689.16;146619;680;46937;-74
2024/04/18 04:56:54;;;;;;;;;7.00;4.00;;;;;18.36;46.66;99688.34;146623;628;46010;-75
2024/04/18 05:00:13;;;;;;;;;5.25;4.00;;;;;18.63;45.79;99697.19;146616;583;46016;-75
2024/04/18 05:03:16;;;;;;;;;5.25;4.00;;;;;18.95;45.52;99706.91;146609;564;46021;-75
2024/04/18 05:06:28;;;;;;;;;4.75;3.00;;;;;19.27;45.76;99705.16;146616;571;47016;-75
2024/04/18 05:09:30;;;;;;;;;2.00;2.00;;;;;19.62;44.20;99713.03;146615;615;46020;-77
2024/04/18 05:12:36;;;;;;;;;2.00;2.00;;;;;19.93;42.80;99712.94;146616;607;46012;-77
2024/04/18 05:15:39;;;;;;;;;1.67;1.00;;;;;20.18;42.61;99724.28;146623;569;46010;-76
2024/04/18 05:18:39;;;;;;;;;2.33;0.33;;;;;20.38;42.33;99725.97;146619;570;46912;-76
2024/04/18 05:21:42;;;;;;;;;1.00;1.00;;;;;20.61;41.97;99731.16;146622;620;46020;-75
2024/04/18 05:24:36;;;;;;;;;2.67;1.67;;;;;20.76;41.59;99724.03;146616;626;46017;-76
2024/04/18 05:27:44;;;;;;;;;;;;;;;;;;;;;
2024/04/18 05:31:00;;;;;;;;;3.00;2.00;;;;;21.19;40.73;99723.72;146617;666;47014;-74
2024/04/18 05:34:03;;;;;;;;;2.67;2.00;;;;;21.34;40.96;99725.38;146612;585;48010;-76
2024/04/18 05:36:58;;;;;;;;;4.25;4.25;;;;;21.52;40.43;99720.84;146616;662;46016;-77
2024/04/18 05:40:11;;;;;;;;;;;;;;;;;;;;;
2024/04/18 05:43:20;;;;;;;;;6.75;6.00;;;;;21.84;39.61;99744.28;146616;651;46016;-77
2024/04/18 05:46:22;;;;;;;;;3.75;3.75;;;;;21.97;39.98;99737.97;146621;687;46010;-78
2024/04/18 05:49:23;;;;;;;;;24.50;24.00;;;;;22.14;39.73;99740.41;146615;720;47028;-77
2024/04/18 05:52:40;;;;;;;;;4.00;3.00;;;;;22.24;39.76;99754.41;146616;565;46010;-78
2024/04/18 05:55:58;;;;;;;;;;;;;;;;;;;;;
2024/04/18 05:59:05;;;;;;;;;2.33;1.33;;;;;22.40;38.67;99747.16;146622;624;46020;-81
2024/04/18 06:02:19;;;;;;;;;;;;;;;;;;;;;
2024/04/18 06:05:11;;;;;;;;;3.67;3.67;;;;;22.52;38.36;99754.94;146613;666;47008;-82
2024/04/18 06:08:08;;;;;;;;;1.67;1.67;;;;;22.57;38.83;99758.41;146616;576;48012;-77
2024/04/18 06:11:14;;;;;;;;;2.00;0.33;;;;;22.70;38.34;99767.03;146621;620;47021;-72
2024/04/18 06:14:22;;;;;;;;;1.33;0.33;;;;;22.25;38.99;99653.19;146618;619;46016;-73
2024/04/18 06:17:29;;;;;;;;;;;;;;;;;;;;;
2024/04/18 06:20:27;;;;;;;;;0.00;0.00;;;;;23.22;37.37;99763.69;146616;606;46016;-72
2024/04/18 06:23:28;;;;;;;;;1.67;1.00;;;;;23.38;36.43;99765.16;146623;640;46010;-72
2024/04/18 06:26:27;;;;;;;;;2.00;1.00;;;;;23.54;36.71;99772.84;146619;631;47023;-72
2024/04/18 06:29:39;;;;;;;;;1.00;0.00;;;;;23.61;36.35;99775.34;146623;591;46020;-73
2024/04/18 06:32:38;;;;;;;;;3.00;0.00;;;;;23.54;36.29;99780.78;146619;646;46014;-78
2024/04/18 06:35:34;;;;;;;;;0.33;0.33;;;;;23.44;35.43;99783.59;146612;604;48012;-77
2024/04/18 06:38:32;;;;;;;;;1.00;1.00;;;;;23.48;36.59;99784.41;146615;595;47016;-71
2024/04/18 06:41:32;;;;;;;;;3.00;2.00;;;;;23.61;36.05;99785.06;146621;663;47020;-73
2024/04/18 06:44:30;;;;;;;;;1.00;0.00;;;;;23.71;35.79;99790.25;146615;594;46030;-72
2024/04/18 06:47:22;;;;;;;;;1.33;1.00;;;;;23.80;36.34;99793.59;146622;586;46020;-73
2024/04/18 06:50:15;;;;;;;;;0.67;0.33;;;;;23.94;34.83;99795.13;146615;570;46016;-74
2024/04/18 06:53:14;;;;;;;;;3.00;0.00;;;;;23.99;34.82;99797.69;146622;623;46020;-72
2024/04/18 06:56:16;;;;;;;;;1.67;1.00;;;;;23.88;34.00;99799.66;146620;664;46012;-72
2024/04/18 06:59:10;;;;;;;;;0.00;0.00;;;;;23.74;34.29;99811.34;146709;563;45022;-73
2024/04/18 07:02:14;;;;;;;;;0.00;0.00;;;;;23.72;34.77;99802.56;146628;565;46012;-68
2024/04/18 07:05:24;;;;;;;;;0.00;0.00;;;;;23.82;36.68;99819.16;146629;563;46020;-69
2024/04/18 07:08:36;;;;;;;;;0.00;0.00;;;;;23.89;33.32;99814.62;146622;637;46016;-69
2024/04/18 07:11:32;;;;;;;;;2.00;0.00;;;;;23.91;35.14;99815.47;146628;605;46020;-70
2024/04/18 07:14:32;;;;;;;;;1.33;0.00;;;;;24.00;35.28;99817.97;146623;612;47012;-71
2024/04/18 07:17:28;;;;;;;;;1.00;0.00;;;;;24.12;33.50;99814.22;146631;572;46010;-70
2024/04/18 07:20:25;;;;;;;;;6.00;4.67;;;;;24.14;33.52;99818.59;146624;648;47012;-71
2024/04/18 07:23:33;;;;;;;;;53.50;42.50;;;;;24.13;35.67;99814.19;146625;575;47020;-71
2024/04/18 07:26:42;;;;;;;;;71.50;62.25;;;;;24.31;34.81;99820.03;146614;563;46025;-70
2024/04/18 07:29:37;;;;;;;;;1.00;1.00;;;;;24.53;33.36;99818.75;146625;564;46010;-71
2024/04/18 07:32:46;;;;;;;;;6.33;4.33;;;;;24.75;34.38;99819.16;146625;565;46016;-71
2024/04/18 07:35:43;;;;;;;;;11.25;9.50;;;;;24.92;34.00;99818.78;146622;569;46028;-71
2024/04/18 07:38:41;;;;;;;;;25.50;23.50;;;;;25.13;33.96;99830.75;146623;573;46916;-71
2024/04/18 07:41:44;;;;;;;;;9.75;9.00;;;;;25.25;34.05;99822.50;146624;705;46010;-71
2024/04/18 07:44:40;;;;;;;;;1.00;1.00;;;;;25.33;32.39;99830.31;146621;570;47017;-71
2024/04/18 07:47:35;;;;;;;;;1.67;1.67;;;;;25.32;32.60;99828.53;146626;564;47012;-72
2024/04/18 07:50:29;;;;;;;;;5.67;4.67;;;;;25.42;33.35;99834.50;146626;620;46915;-71
2024/04/18 07:53:27;;;;;;;;;1.00;1.00;;;;;25.34;30.93;99838.22;146630;655;47010;-75
2024/04/18 07:56:23;;;;;;;;;1.00;0.00;;;;;25.17;32.08;99842.16;146625;579;46016;-70
2024/04/18 07:59:25;;;;;;;;;1.00;0.00;;;;;25.13;32.70;99846.66;146637;591;46010;-75
2024/04/18 08:02:24;;;;;;;;;0.00;0.00;;;;;25.25;32.91;99851.69;146642;569;46012;-69
2024/04/18 08:05:22;;;;;;;;;3.00;0.00;;;;;25.32;32.60;99852.41;146643;640;45020;-71
2024/04/18 08:08:43;;;;;;;;;1.00;1.00;;;;;25.32;31.39;99842.66;146641;569;46012;-70
2024/04/18 08:11:47;;;;;;;;;0.00;0.00;;;;;25.41;33.59;99849.56;146645;565;45010;-70
2024/04/18 08:14:59;;;;;;;;;1.33;0.00;;;;;25.47;33.27;99851.19;146637;572;45914;-69
2024/04/18 08:17:51;;;;;;;;;0.00;0.00;;;;;25.67;32.31;99854.25;146645;572;46010;-70
2024/04/18 08:20:56;;;;;;;;;0.33;0.33;;;;;25.90;31.86;99855.50;146639;571;45016;-70
2024/04/18 08:24:02;;;;;;;;;0.00;0.00;;;;;26.06;33.60;99854.19;146637;572;45048;-69
2024/04/18 08:26:57;;;;;;;;;2.67;0.00;;;;;26.25;30.82;99858.09;146636;626;46913;-69
2024/04/18 08:29:55;;;;;;;;;0.33;0.33;;;;;26.41;31.00;99861.19;146639;594;46012;-70
2024/04/18 08:33:01;;;;;;;;;0.00;0.00;;;;;26.48;30.20;99862.81;146638;564;46016;-69
2024/04/18 08:35:57;;;;;;;;;0.00;0.00;;;;;26.44;29.91;99869.09;146644;680;46010;-70
2024/04/18 08:39:03;;;;;;;;;0.67;0.00;;;;;26.15;30.54;99872.53;146637;586;48013;-70
2024/04/18 08:42:09;;;;;;;;;1.00;0.00;;;;;25.75;31.63;99878.81;146642;589;46020;-69
2024/04/18 08:45:05;;;;;;;;;1.33;1.00;;;;;25.68;31.50;99879.00;146638;651;45012;-69
2024/04/18 08:48:05;;;;;;;;;1.00;1.00;;;;;25.83;30.69;99873.38;146635;672;46020;-70
2024/04/18 08:51:14;;;;;;;;;0.00;0.00;;;;;25.82;31.18;99870.72;146639;583;45013;-70
2024/04/18 08:54:15;;;;;;;;;0.00;0.00;;;;;25.69;32.25;99873.66;146642;658;45032;-71
2024/04/18 08:57:27;;;;;;;;;0.00;0.00;;;;;25.46;32.01;99871.56;146632;627;47014;-70
2024/04/18 09:00:19;;;;;;;;;0.00;0.00;;;;;25.28;31.95;99877.28;146623;577;46021;-70
2024/04/18 09:03:39;;;;;;;;;0.00;0.00;;;;;25.17;32.01;99882.84;146617;569;47012;-71
2024/04/18 09:06:33;;;;;;;;;0.00;0.00;;;;;25.25;32.59;99883.53;146623;604;46021;-70
2024/04/18 09:09:43;;;;;;;;;1.00;0.00;;;;;25.25;32.47;99824.28;146618;620;46914;-71
2024/04/18 09:12:48;;;;;;;;;0.00;0.00;;;;;25.86;31.41;99881.25;146622;569;47020;-69
2024/04/18 09:15:48;;;;;;;;;0.00;0.00;;;;;25.92;31.08;99877.56;146620;635;46017;-70
2024/04/18 09:19:12;;;;;;;;;0.00;0.00;;;;;25.76;31.72;99888.56;146619;577;46022;-70
2024/04/18 09:22:11;;;;;;;;;0.00;0.00;;;;;25.50;31.46;99894.47;146620;581;46016;-70
2024/04/18 09:25:31;;;;;;;;;0.00;0.00;;;;;24.87;32.26;99834.81;146625;642;46020;-70
2024/04/18 09:28:33;;;;;;;;;0.00;0.00;;;;;25.01;32.50;99894.63;146618;582;47012;-70
2024/04/18 09:31:31;;;;;;;;;0.00;0.00;;;;;24.83;32.97;99902.09;146625;593;46030;-69
2024/04/18 09:34:38;;;;;;;;;1.00;0.00;;;;;24.64;32.69;99890.97;146619;696;46016;-71
2024/04/18 09:37:45;;;;;;;;;1.67;0.00;;;;;24.46;33.62;99883.38;146622;622;46021;-71
2024/04/18 09:40:52;;;;;;;;;0.00;0.00;;;;;24.32;33.32;99877.41;146619;661;46016;-69
2024/04/18 09:44:19;;;;;;;;;0.00;0.00;;;;;24.15;34.08;99875.94;146623;579;46021;-70
2024/04/18 09:47:31;;;;;;;;;0.00;0.00;;;;;23.68;34.56;99818.50;146619;604;46014;-69
2024/04/18 09:50:24;;;;;;;;;6.00;2.33;;;;;23.89;33.68;99875.50;146621;613;46020;-69
2024/04/18 09:53:22;;;;;;;;;2.00;2.00;;;;;23.78;33.95;99878.34;146618;566;46016;-70
2024/04/18 09:56:25;;;;;;;;;0.00;0.00;;;;;23.66;33.57;99878.50;146624;581;46010;-69
2024/04/18 09:59:55;;;;;;;;;1.00;1.00;;;;;23.23;35.39;99815.66;146637;578;46013;-71
2024/04/18 10:02:55;;;;;;;;;0.00;0.00;;;;;23.62;34.30;99885.63;146643;583;45010;-69
2024/04/18 10:06:02;;;;;;;;;0.33;0.00;;;;;23.70;34.74;99880.25;146638;583;45016;-71
2024/04/18 10:09:17;;;;;;;;;1.00;0.33;;;;;23.66;34.17;99883.81;146637;573;46010;-70
2024/04/18 10:12:34;;;;;;;;;0.67;0.00;;;;;23.17;35.00;99800.75;146640;624;46012;-71
2024/04/18 10:15:51;;;;;;;;;0.00;0.00;;;;;23.63;34.40;99871.50;146638;577;46020;-70
2024/04/18 10:18:51;;;;;;;;;0.00;0.00;;;;;23.59;32.61;99853.94;146640;572;45016;-70
2024/04/18 10:21:54;;;;;;;;;0.00;0.00;;;;;23.92;32.29;99872.81;146642;582;45012;-69
2024/04/18 10:24:59;;;;;;;;;0.00;0.00;;;;;24.23;32.98;99865.19;146638;606;46012;-70
2024/04/18 10:28:36;;;;;;;;;0.00;0.00;;;;;24.14;32.25;99815.03;146646;577;46010;-72
2024/04/18 10:31:44;;;;;;;;;;;;;;;;;;;;;
2024/04/18 10:34:54;;;;;;;;;1.00;0.00;;;;;24.11;31.36;99863.69;146646;640;46010;-71
2024/04/18 10:38:39;;;;;;;;;;;;;;;;;;;;;
2024/04/18 10:41:36;;;;;;;;;0.00;0.00;;;;;24.67;30.80;99879.41;146645;627;44020;-70
2024/04/18 10:44:31;;;;;;;;;0.00;0.00;;;;;24.69;30.04;99877.63;146643;595;45913;-69
2024/04/18 10:47:34;;;;;;;;;0.00;0.00;;;;;24.60;30.38;99880.44;146643;665;45020;-70
2024/04/18 10:50:59;;;;;;;;;;;;;;;;;;;;;
2024/04/18 10:54:22;;;;;;;;;0.00;0.00;;;;;24.28;32.35;99866.00;146641;634;45020;-71
2024/04/18 10:57:30;;;;;;;;;;;;;;;;;;;;;
2024/04/18 11:00:38;;;;;;;;;0.00;0.00;;;;;24.62;32.83;99853.00;146621;570;46020;-70
2024/04/18 11:03:40;;;;;;;;;0.00;0.00;;;;;25.14;30.55;99863.44;146620;572;46016;-69
2024/04/18 11:06:46;;;;;;;;;0.00;0.00;;;;;25.51;30.26;99855.50;146623;585;46012;-70
2024/04/18 11:09:43;;;;;;;;;0.00;0.00;;;;;25.84;29.70;99866.28;146620;639;46012;-69
2024/04/18 11:12:49;;;;;;;;;0.00;0.00;;;;;25.61;29.48;99787.13;146624;597;47010;-70
2024/04/18 11:15:47;;;;;;;;;0.00;0.00;;;;;26.11;28.49;99857.59;146618;668;46016;-69
2024/04/18 11:18:50;;;;;;;;;0.00;0.00;;;;;25.49;30.44;99805.13;146624;591;47012;-69
2024/04/18 11:21:50;;;;;;;;;0.00;0.00;;;;;25.69;28.50;99859.50;146620;578;46017;-70
2024/04/18 11:24:48;;;;;;;;;1.00;0.00;;;;;25.87;29.17;99860.88;146624;658;46020;-70
2024/04/18 11:27:55;;;;;;;;;0.00;0.00;;;;;25.57;28.56;99803.13;146617;595;46914;-70
2024/04/18 11:31:05;;;;;;;;;0.00;0.00;;;;;25.83;28.20;99854.78;146624;653;46010;-70
2024/04/18 11:34:06;;;;;;;;;0.00;0.00;;;;;25.83;30.17;99859.22;146617;563;46014;-69
2024/04/18 11:37:07;;;;;;;;;0.00;0.00;;;;;25.99;28.45;99860.56;146625;571;46010;-69
2024/04/18 11:40:20;;;;;;;;;1.00;0.00;;;;;25.91;29.27;99804.97;146622;565;47012;-71
2024/04/18 11:43:23;;;;;;;;;0.67;0.00;;;;;26.21;29.26;99855.56;146625;636;46010;-71
2024/04/18 11:46:21;;;;;;;;;0.00;0.00;;;;;25.90;27.34;99866.13;146619;656;46016;-70
2024/04/18 11:49:26;;;;;;;;;0.00;0.00;;;;;25.52;29.55;99852.84;146626;570;45020;-71
2024/04/18 11:52:33;;;;;;;;;0.00;0.00;;;;;25.43;28.38;99857.50;146615;682;47012;-71
2024/04/18 11:55:30;;;;;;;;;0.00;0.00;;;;;25.55;28.64;99859.84;146619;599;47030;-69
2024/04/18 11:58:28;;;;;;;;;0.67;0.00;;;;;25.60;27.01;99860.59;146617;625;46017;-70
2024/04/18 12:01:52;;;;;;;;;0.00;0.00;;;;;25.12;29.92;99798.03;146621;663;46018;-69
2024/04/18 12:04:52;;;;;;;;;0.00;0.00;;;;;25.21;29.04;99863.28;146620;622;47012;-69
2024/04/18 12:07:54;;;;;;;;;0.00;0.00;;;;;25.00;29.74;99863.72;146618;586;47020;-70
2024/04/18 12:10:50;;;;;;;;;0.00;0.00;;;;;24.88;28.15;99856.91;146619;590;46939;-71
2024/04/18 12:14:00;;;;;;;;;0.00;0.00;;;;;25.08;29.72;99861.78;146622;651;46010;-70
2024/04/18 12:16:52;;;;;;;;;0.00;0.00;;;;;25.39;27.59;99853.12;146618;569;46913;-70
2024/04/18 12:19:51;;;;;;;;;0.00;0.00;;;;;25.41;27.06;99852.22;146624;688;46011;-69
2024/04/18 12:22:46;;;;;;;;;0.00;0.00;;;;;25.23;27.41;99856.16;146620;563;46913;-70
2024/04/18 12:25:47;;;;;;;;;0.00;0.00;;;;;25.05;27.64;99857.41;146621;648;46013;-68
2024/04/18 12:29:01;;;;;;;;;0.00;0.00;;;;;24.85;27.79;99852.53;146618;652;47012;-69
2024/04/18 12:31:53;;;;;;;;;0.00;0.00;;;;;24.72;28.62;99848.41;146624;584;46031;-68
2024/04/18 12:34:58;;;;;;;;;0.00;0.00;;;;;24.66;27.45;99846.72;146618;595;46916;-70
2024/04/18 12:37:50;;;;;;;;;0.00;0.00;;;;;24.74;27.82;99841.28;146623;633;47010;-68
2024/04/18 12:41:04;;;;;;;;;0.00;0.00;;;;;25.09;29.06;99844.97;146618;586;47013;-70
2024/04/18 12:44:10;;;;;;;;;0.00;0.00;;;;;25.46;28.15;99834.41;146619;598;46020;-69
2024/04/18 12:47:16;;;;;;;;;0.00;0.00;;;;;25.69;27.22;99832.97;146621;656;46016;-70
2024/04/18 12:50:14;;;;;;;;;0.00;0.00;;;;;25.83;26.24;99851.25;146623;602;46010;-71
2024/04/18 12:53:15;;;;;;;;;0.00;0.00;;;;;25.76;25.75;99843.41;146617;686;46016;-70
2024/04/18 12:56:14;;;;;;;;;0.00;0.00;;;;;25.66;25.83;99849.84;146622;564;46021;-70
2024/04/18 12:59:40;;;;;;;;;0.00;0.00;;;;;25.53;27.93;99851.91;146633;605;45915;-69
2024/04/18 13:02:48;;;;;;;;;0.00;0.00;;;;;25.41;27.21;99846.91;146638;564;45020;-70
2024/04/18 13:05:41;;;;;;;;;0.00;0.00;;;;;25.33;26.63;99846.22;146631;569;46012;-69
2024/04/18 13:08:47;;;;;;;;;0.00;0.00;;;;;25.30;27.08;99849.81;146634;602;45020;-71
2024/04/18 13:11:41;;;;;;;;;0.00;0.00;;;;;25.43;25.96;99854.84;146634;694;45014;-70
2024/04/18 13:14:51;;;;;;;;;1.00;0.00;;;;;25.59;28.59;99856.22;146635;582;46010;-70
2024/04/18 13:17:44;;;;;;;;;0.00;0.00;;;;;25.76;26.22;99859.34;146635;627;45016;-71
2024/04/18 13:20:41;;;;;;;;;0.00;0.00;;;;;25.87;26.94;99867.06;146635;654;45020;-70
2024/04/18 13:23:38;;;;;;;;;0.33;0.00;;;;;25.90;25.19;99861.66;146632;680;46014;-68
2024/04/18 13:26:33;;;;;;;;;0.00;0.00;;;;;25.97;26.54;99862.38;146634;590;45021;-72
2024/04/18 13:29:49;;;;;;;;;0.00;0.00;;;;;25.47;28.71;99784.84;146632;634;45016;-71
2024/04/18 13:32:42;;;;;;;;;0.00;0.00;;;;;25.76;25.31;99871.72;146637;597;46010;-71
2024/04/18 13:35:47;;;;;;;;;0.00;0.00;;;;;25.62;25.79;99872.06;146637;595;45012;-70
2024/04/18 13:38:42;;;;;;;;;0.00;0.00;;;;;25.47;26.01;99870.63;146636;590;45010;-69
2024/04/18 13:42:00;;;;;;;;;0.50;0.50;;;;;25.32;27.23;99869.19;146633;588;46014;-69
2024/04/18 13:44:53;;;;;;;;;2.33;1.33;;;;;25.08;26.05;99875.06;146635;632;45913;-67
2024/04/18 13:47:57;;;;;;;;;0.00;0.00;;;;;24.85;27.23;99867.56;146634;615;45017;-68
2024/04/18 13:50:59;;;;;;;;;0.67;0.00;;;;;24.66;26.88;99867.06;146635;604;45010;-68
2024/04/18 13:54:07;;;;;;;;;0.00;0.00;;;;;24.48;26.73;99873.59;146634;597;46013;-70
2024/04/18 13:57:10;;;;;;;;;0.00;0.00;;;;;24.35;26.90;99882.66;146630;597;46010;-70
2024/04/18 14:00:17;;;;;;;;;0.00;0.00;;;;;24.25;28.07;99876.66;146620;653;46030;-70
2024/04/18 14:03:26;;;;;;;;;1.67;0.00;;;;;24.20;29.06;99887.34;146616;607;46021;-68
2024/04/18 14:06:24;;;;;;;;;0.00;0.00;;;;;24.16;28.14;99887.41;146616;565;47012;-70
2024/04/18 14:09:26;;;;;;;;;1.00;0.00;;;;;24.11;28.12;99890.16;146622;609;46020;-69
2024/04/18 14:12:25;;;;;;;;;0.00;0.00;;;;;24.07;27.76;99885.78;146618;601;47016;-69
2024/04/18 14:15:47;;;;;;;;;;;;;;;;;;;;;
2024/04/18 14:18:57;;;;;;;;;0.33;0.00;;;;;24.07;28.06;99882.28;146615;586;47017;-72
2024/04/18 14:21:55;;;;;;;;;0.00;0.00;;;;;24.01;27.48;99888.53;146616;578;46010;-72
2024/04/18 14:24:51;;;;;;;;;0.00;0.00;;;;;23.92;27.57;99891.34;146618;576;46013;-72
2024/04/18 14:27:52;;;;;;;;;0.00;0.00;;;;;23.84;26.76;99890.62;146622;569;46010;-69
2024/04/18 14:30:52;;;;;;;;;0.00;0.00;;;;;23.85;28.22;99889.72;146617;586;47023;-69
2024/04/18 14:33:56;;;;;;;;;0.00;0.00;;;;;23.82;26.94;99887.97;146620;649;46021;-71
2024/04/18 14:36:59;;;;;;;;;0.00;0.00;;;;;23.78;27.07;99890.72;146621;577;46034;-70
2024/04/18 14:39:52;;;;;;;;;0.00;0.00;;;;;23.71;27.39;99897.88;146618;657;47011;-70
2024/04/18 14:42:57;;;;;;;;;0.00;0.00;;;;;23.66;27.37;99897.91;146619;698;46016;-70
2024/04/18 14:45:59;;;;;;;;;;;;;;;;;;;;;
2024/04/18 14:49:04;;;;;;;;;0.00;0.00;;;;;23.05;29.28;99801.84;146617;570;46016;-69